createdAt,value
2022-11-04T00:00:04.816Z,6.10
2022-11-04T00:00:15.619Z,6.00
2022-11-04T00:00:29.669Z,6.50
2022-11-04T00:00:41.002Z,6.80
2022-11-04T00:00:51.821Z,7.20
2022-11-04T00:01:02.644Z,6.50
2022-11-04T00:01:14.393Z,6.40
2022-11-04T00:01:26.651Z,5.90
2022-11-04T00:01:37.421Z,6.00
2022-11-04T00:01:48.297Z,6.10
2022-11-04T00:02:00.643Z,6.50
2022-11-04T00:02:11.444Z,6.30
2022-11-04T00:02:23.185Z,6.00
2022-11-04T00:02:35.408Z,5.90
2022-11-04T00:02:46.196Z,6.40
2022-11-04T00:02:58.671Z,6.00
2022-11-04T00:03:11.413Z,5.90
2022-11-04T00:03:23.251Z,5.70
2022-11-04T00:03:35.034Z,5.90
2022-11-04T00:03:45.814Z,5.90
2022-11-04T00:03:56.592Z,6.20
2022-11-04T00:04:09.044Z,6.00
2022-11-04T00:04:20.732Z,5.90
2022-11-04T00:04:31.475Z,5.80
2022-11-04T00:04:42.242Z,6.30
2022-11-04T00:04:53.034Z,6.50
2022-11-04T00:05:04.735Z,6.70
2022-11-04T00:05:16.454Z,6.90
2022-11-04T00:05:28.884Z,6.50
2022-11-04T00:05:40.635Z,6.40
2022-11-04T00:05:51.373Z,6.30
2022-11-04T00:06:02.163Z,6.50
2022-11-04T00:06:14.862Z,6.50
2022-11-04T00:06:25.632Z,6.50
2022-11-04T00:06:36.425Z,6.30
2022-11-04T00:06:47.182Z,6.50
2022-11-04T00:07:00.405Z,6.10
2022-11-04T00:07:11.153Z,5.80
2022-11-04T00:07:21.894Z,5.60
2022-11-04T00:07:34.354Z,6.00
2022-11-04T00:07:45.114Z,6.30
2022-11-04T00:07:57.522Z,6.70
2022-11-04T00:08:08.253Z,6.80
2022-11-04T00:08:21.469Z,6.50
2022-11-04T00:08:32.224Z,6.50
2022-11-04T00:08:43.982Z,6.30
2022-11-04T00:08:55.723Z,6.00
2022-11-04T00:09:06.498Z,5.90
2022-11-04T00:09:17.236Z,6.10
2022-11-04T00:09:27.967Z,6.20
2022-11-04T00:09:40.433Z,6.50
2022-11-04T00:09:51.193Z,6.20
2022-11-04T00:10:02.937Z,6.20
2022-11-04T00:10:13.685Z,6.40
2022-11-04T00:10:25.983Z,6.50
2022-11-04T00:10:36.734Z,6.00
2022-11-04T00:10:47.485Z,5.80
2022-11-04T00:10:58.253Z,6.20
2022-11-04T00:11:09.034Z,6.10
2022-11-04T00:11:19.792Z,6.20
2022-11-04T00:11:31.464Z,5.90
2022-11-04T00:11:42.233Z,6.20
2022-11-04T00:11:53.944Z,6.00
2022-11-04T00:12:04.737Z,6.10
2022-11-04T00:12:16.436Z,6.30
2022-11-04T00:12:28.699Z,6.20
2022-11-04T00:12:39.434Z,6.20
2022-11-04T00:12:51.637Z,6.20
2022-11-04T00:13:03.336Z,6.00
2022-11-04T00:13:14.138Z,5.60
2022-11-04T00:13:24.877Z,5.80
2022-11-04T00:13:35.635Z,6.10
2022-11-04T00:13:46.397Z,6.40
2022-11-04T00:13:57.127Z,6.30
2022-11-04T00:14:07.905Z,6.20
2022-11-04T00:14:18.640Z,5.70
2022-11-04T00:14:31.066Z,6.00
2022-11-04T00:14:41.805Z,5.80
2022-11-04T00:14:52.571Z,5.70
2022-11-04T00:15:03.313Z,5.50
2022-11-04T00:15:14.085Z,6.20
2022-11-04T00:15:26.811Z,6.20
2022-11-04T00:15:38.515Z,6.70
2022-11-04T00:15:50.465Z,6.70
2022-11-04T00:16:02.209Z,6.40
2022-11-04T00:16:13.937Z,6.40
2022-11-04T00:16:25.675Z,6.00
2022-11-04T00:16:38.162Z,6.50
2022-11-04T00:16:49.630Z,6.40
2022-11-04T00:17:01.389Z,6.40
2022-11-04T00:17:13.076Z,6.00
2022-11-04T00:17:23.845Z,6.30
2022-11-04T00:17:34.616Z,6.30
2022-11-04T00:17:47.059Z,6.30
2022-11-04T00:17:57.786Z,6.30
2022-11-04T00:18:08.556Z,6.30
2022-11-04T00:18:20.296Z,6.30
2022-11-04T00:18:32.537Z,6.10
2022-11-04T00:18:43.296Z,6.10
2022-11-04T00:18:56.517Z,5.90
2022-11-04T00:19:09.725Z,5.60
2022-11-04T00:19:22.647Z,5.70
2022-11-04T00:19:34.837Z,6.10
2022-11-04T00:19:46.975Z,6.10
2022-11-04T00:19:57.746Z,5.90
2022-11-04T00:20:09.957Z,6.00
2022-11-04T00:20:22.395Z,6.00
2022-11-04T00:20:34.838Z,6.00
2022-11-04T00:20:45.617Z,5.80
2022-11-04T00:20:58.127Z,5.50
2022-11-04T00:21:08.962Z,5.40
2022-11-04T00:21:22.175Z,5.50
2022-11-04T00:21:32.967Z,6.10
2022-11-04T00:21:43.697Z,6.10
2022-11-04T00:21:54.449Z,6.10
2022-11-04T00:22:05.218Z,5.40
2022-11-04T00:22:17.648Z,5.60
2022-11-04T00:22:29.389Z,5.80
2022-11-04T00:22:41.107Z,6.00
2022-11-04T00:22:51.911Z,5.80
2022-11-04T00:23:03.638Z,5.80
2022-11-04T00:23:16.089Z,6.30
2022-11-04T00:23:26.848Z,6.40
2022-11-04T00:23:38.607Z,5.90
2022-11-04T00:23:50.829Z,6.00
2022-11-04T00:24:01.599Z,6.00
2022-11-04T00:24:13.308Z,6.20
2022-11-04T00:24:25.515Z,6.30
2022-11-04T00:24:36.257Z,6.10
2022-11-04T00:24:47.957Z,6.00
2022-11-04T00:24:59.692Z,6.10
2022-11-04T00:25:11.907Z,8.20
2022-11-04T00:25:22.677Z,8.90
2022-11-04T00:25:33.472Z,7.70
2022-11-04T00:25:44.329Z,7.30
2022-11-04T00:25:56.028Z,6.80
2022-11-04T00:26:08.979Z,6.30
2022-11-04T00:26:19.719Z,5.80
2022-11-04T00:26:31.450Z,6.10
2022-11-04T00:26:43.169Z,6.00
2022-11-04T00:26:55.371Z,6.00
2022-11-04T00:27:07.819Z,6.70
2022-11-04T00:27:18.559Z,10.40
2022-11-04T00:27:29.302Z,12.90
2022-11-04T00:27:40.050Z,12.40
2022-11-04T00:27:50.820Z,8.40
2022-11-04T00:28:04.576Z,7.20
2022-11-04T00:28:16.311Z,7.50
2022-11-04T00:28:27.051Z,7.20
2022-11-04T00:28:37.816Z,6.30
2022-11-04T00:28:49.610Z,6.20
2022-11-04T00:29:00.360Z,6.50
2022-11-04T00:29:12.082Z,6.90
2022-11-04T00:29:24.301Z,7.00
2022-11-04T00:29:37.490Z,6.90
2022-11-04T00:29:49.239Z,7.00
2022-11-04T00:30:00.943Z,7.50
2022-11-04T00:30:14.149Z,8.40
2022-11-04T00:30:24.890Z,7.80
2022-11-04T00:30:37.330Z,7.50
2022-11-04T00:30:49.048Z,6.80
2022-11-04T00:31:00.739Z,6.80
2022-11-04T00:31:13.199Z,6.70
2022-11-04T00:31:25.359Z,6.90
2022-11-04T00:31:37.139Z,7.10
2022-11-04T00:31:47.959Z,7.10
2022-11-04T00:31:58.720Z,6.90
2022-11-04T00:32:09.459Z,7.10
2022-11-04T00:32:20.189Z,7.40
2022-11-04T00:32:30.962Z,7.30
2022-11-04T00:32:42.652Z,7.10
2022-11-04T00:32:53.611Z,7.20
2022-11-04T00:33:06.331Z,7.50
2022-11-04T00:33:18.041Z,7.70
2022-11-04T00:33:30.540Z,7.50
2022-11-04T00:33:42.990Z,7.80
2022-11-04T00:33:55.472Z,7.50
2022-11-04T00:34:06.348Z,7.60
2022-11-04T00:34:17.152Z,7.90
2022-11-04T00:34:27.881Z,7.80
2022-11-04T00:34:38.642Z,7.60
2022-11-04T00:34:51.121Z,7.60
2022-11-04T00:35:03.531Z,7.80
2022-11-04T00:35:14.280Z,7.90
2022-11-04T00:35:26.702Z,7.80
2022-11-04T00:35:38.423Z,7.80
2022-11-04T00:35:50.900Z,7.90
2022-11-04T00:36:02.651Z,8.20
2022-11-04T00:36:13.433Z,8.00
2022-11-04T00:36:25.872Z,8.00
2022-11-04T00:36:37.611Z,7.90
2022-11-04T00:36:50.812Z,7.60
2022-11-04T00:37:03.280Z,7.60
2022-11-04T00:37:15.010Z,7.50
2022-11-04T00:37:25.782Z,7.80
2022-11-04T00:37:36.553Z,7.90
2022-11-04T00:37:48.261Z,7.80
2022-11-04T00:37:59.992Z,8.40
2022-11-04T00:38:11.080Z,8.00
2022-11-04T00:38:23.631Z,7.90
2022-11-04T00:38:35.391Z,7.70
2022-11-04T00:38:46.154Z,7.60
2022-11-04T00:38:56.911Z,7.60
2022-11-04T00:39:07.696Z,7.50
2022-11-04T00:39:18.451Z,7.30
2022-11-04T00:39:31.162Z,7.10
2022-11-04T00:39:41.942Z,7.00
2022-11-04T00:39:54.671Z,6.50
2022-11-04T00:40:05.424Z,6.00
2022-11-04T00:40:16.203Z,6.40
2022-11-04T00:40:26.922Z,6.30
2022-11-04T00:40:37.712Z,6.50
2022-11-04T00:40:48.452Z,6.10
2022-11-04T00:41:00.142Z,6.20
2022-11-04T00:41:10.892Z,6.30
2022-11-04T00:41:21.612Z,6.10
2022-11-04T00:41:33.353Z,6.10
2022-11-04T00:41:44.083Z,6.10
2022-11-04T00:41:54.852Z,6.10
2022-11-04T00:42:08.013Z,6.10
2022-11-04T00:42:18.832Z,5.80
2022-11-04T00:42:29.595Z,5.50
2022-11-04T00:42:40.343Z,5.60
2022-11-04T00:42:51.103Z,5.80
2022-11-04T00:43:01.842Z,5.80
2022-11-04T00:43:15.535Z,5.50
2022-11-04T00:43:26.273Z,5.20
2022-11-04T00:43:37.993Z,5.30
2022-11-04T00:43:50.454Z,5.30
2022-11-04T00:44:01.200Z,5.60
2022-11-04T00:44:11.951Z,5.50
2022-11-04T00:44:22.712Z,5.80
2022-11-04T00:44:35.153Z,5.50
2022-11-04T00:44:45.891Z,5.60
2022-11-04T00:44:57.616Z,5.30
2022-11-04T00:45:09.333Z,5.30
2022-11-04T00:45:20.063Z,5.10
2022-11-04T00:45:31.823Z,5.30
2022-11-04T00:45:44.023Z,5.40
2022-11-04T00:45:54.762Z,4.90
2022-11-04T00:46:07.014Z,5.10
2022-11-04T00:46:17.804Z,5.30
2022-11-04T00:46:29.525Z,5.40
2022-11-04T00:46:40.272Z,5.40
2022-11-04T00:46:51.994Z,5.40
2022-11-04T00:47:02.822Z,5.20
2022-11-04T00:47:14.564Z,5.10
2022-11-04T00:47:25.314Z,5.00
2022-11-04T00:47:36.064Z,4.90
2022-11-04T00:47:47.797Z,5.10
2022-11-04T00:48:00.053Z,5.30
2022-11-04T00:48:11.162Z,5.50
2022-11-04T00:48:22.024Z,5.30
2022-11-04T00:48:34.455Z,5.20
2022-11-04T00:48:45.223Z,5.20
2022-11-04T00:48:55.979Z,5.30
2022-11-04T00:49:06.726Z,5.20
2022-11-04T00:49:18.454Z,5.20
2022-11-04T00:49:29.205Z,5.10
2022-11-04T00:49:40.926Z,5.10
2022-11-04T00:49:53.213Z,5.00
2022-11-04T00:50:03.964Z,5.20
2022-11-04T00:50:15.694Z,5.10
2022-11-04T00:50:26.493Z,5.20
2022-11-04T00:50:37.265Z,5.10
2022-11-04T00:50:49.714Z,5.00
2022-11-04T00:51:00.501Z,4.90
2022-11-04T00:51:25.559Z,4.80
2022-11-04T00:51:36.305Z,5.00
2022-11-04T00:51:47.065Z,4.90
2022-11-04T00:51:57.839Z,5.10
2022-11-04T00:52:08.567Z,5.20
2022-11-04T00:52:19.355Z,5.20
2022-11-04T00:52:30.139Z,5.10
2022-11-04T00:52:41.965Z,4.90
2022-11-04T00:52:54.935Z,4.80
2022-11-04T00:53:05.977Z,5.40
2022-11-04T00:53:16.915Z,5.60
2022-11-04T00:53:27.676Z,6.10
2022-11-04T00:53:39.398Z,5.70
2022-11-04T00:53:50.147Z,5.70
2022-11-04T00:54:00.876Z,5.60
2022-11-04T00:54:11.625Z,5.30
2022-11-04T00:54:22.387Z,5.20
2022-11-04T00:54:33.171Z,5.00
2022-11-04T00:54:44.187Z,5.10
2022-11-04T00:54:55.987Z,5.10
2022-11-04T00:55:07.757Z,5.30
2022-11-04T00:55:19.492Z,5.40
2022-11-04T00:55:30.234Z,4.90
2022-11-04T00:55:40.987Z,5.10
2022-11-04T00:55:52.696Z,5.20
2022-11-04T00:56:04.900Z,5.40
2022-11-04T00:56:16.630Z,5.50
2022-11-04T00:56:29.179Z,5.30
2022-11-04T00:56:41.620Z,5.40
2022-11-04T00:56:52.360Z,5.30
2022-11-04T00:57:04.086Z,5.50
2022-11-04T00:57:14.856Z,5.60
2022-11-04T00:57:27.036Z,5.50
2022-11-04T00:57:38.758Z,5.50
2022-11-04T00:57:51.696Z,5.50
2022-11-04T00:58:04.149Z,5.50
2022-11-04T00:58:14.937Z,5.10
2022-11-04T00:58:26.708Z,5.20
2022-11-04T00:58:40.424Z,5.30
2022-11-04T00:58:51.187Z,5.70
2022-11-04T00:59:03.666Z,5.80
2022-11-04T00:59:14.773Z,5.80
2022-11-04T00:59:26.506Z,5.80
2022-11-04T00:59:38.257Z,6.10
2022-11-04T00:59:49.958Z,6.00
2022-11-04T01:00:01.691Z,6.00
2022-11-04T01:00:12.471Z,6.00
2022-11-04T01:00:24.197Z,5.90
2022-11-04T01:00:35.007Z,5.80
2022-11-04T01:00:47.739Z,5.80
2022-11-04T01:00:59.873Z,5.70
2022-11-04T01:01:12.514Z,5.60
2022-11-04T01:01:24.457Z,5.40
2022-11-04T01:01:36.415Z,5.40
2022-11-04T01:01:48.968Z,5.70
2022-11-04T01:02:00.943Z,5.70
2022-11-04T01:02:11.878Z,5.70
2022-11-04T01:02:23.832Z,5.80
2022-11-04T01:02:34.799Z,6.20
2022-11-04T01:02:45.613Z,6.20
2022-11-04T01:02:57.382Z,6.40
2022-11-04T01:03:08.516Z,6.30
2022-11-04T01:03:19.509Z,6.00
2022-11-04T01:03:31.252Z,5.80
2022-11-04T01:03:44.469Z,5.80
2022-11-04T01:03:55.228Z,6.00
2022-11-04T01:04:06.013Z,6.10
2022-11-04T01:04:19.220Z,6.40
2022-11-04T01:04:31.689Z,6.50
2022-11-04T01:04:42.470Z,6.50
2022-11-04T01:04:54.928Z,6.10
2022-11-04T01:05:05.708Z,6.40
2022-11-04T01:05:18.258Z,6.30
2022-11-04T01:05:28.989Z,6.10
2022-11-04T01:05:40.754Z,5.80
2022-11-04T01:05:51.532Z,6.20
2022-11-04T01:06:02.289Z,6.50
2022-11-04T01:06:13.980Z,6.90
2022-11-04T01:06:24.747Z,6.80
2022-11-04T01:06:35.530Z,6.50
2022-11-04T01:06:48.019Z,6.20
2022-11-04T01:07:00.506Z,6.20
2022-11-04T01:07:11.238Z,6.60
2022-11-04T01:07:23.728Z,6.50
2022-11-04T01:07:37.341Z,6.50
2022-11-04T01:07:50.139Z,6.20
2022-11-04T01:08:00.918Z,5.90
2022-11-04T01:08:13.129Z,6.10
2022-11-04T01:08:23.949Z,6.20
2022-11-04T01:08:34.724Z,6.10
2022-11-04T01:08:45.490Z,6.20
2022-11-04T01:08:56.200Z,6.20
2022-11-04T01:09:08.164Z,6.50
2022-11-04T01:09:19.912Z,6.80
2022-11-04T01:09:31.641Z,6.50
2022-11-04T01:09:42.412Z,6.60
2022-11-04T01:09:54.129Z,6.50
2022-11-04T01:10:06.331Z,6.50
2022-11-04T01:10:17.091Z,6.80
2022-11-04T01:10:28.813Z,7.00
2022-11-04T01:10:39.591Z,6.80
2022-11-04T01:10:52.050Z,6.90
2022-11-04T01:11:02.787Z,6.70
2022-11-04T01:11:13.639Z,6.60
2022-11-04T01:11:25.420Z,6.60
2022-11-04T01:11:36.230Z,6.90
2022-11-04T01:11:48.434Z,7.40
2022-11-04T01:12:00.270Z,7.40
2022-11-04T01:12:10.995Z,7.30
2022-11-04T01:12:21.719Z,6.80
2022-11-04T01:12:32.500Z,7.00
2022-11-04T01:12:43.263Z,7.50
2022-11-04T01:12:54.041Z,8.20
2022-11-04T01:13:04.795Z,8.30
2022-11-04T01:13:15.521Z,7.90
2022-11-04T01:13:26.270Z,7.80
2022-11-04T01:13:37.059Z,7.50
2022-11-04T01:13:47.822Z,7.50
2022-11-04T01:13:58.552Z,7.30
2022-11-04T01:14:09.289Z,7.20
2022-11-04T01:14:21.750Z,6.90
2022-11-04T01:14:32.501Z,7.20
2022-11-04T01:14:43.233Z,7.60
2022-11-04T01:14:54.071Z,8.00
2022-11-04T01:15:04.917Z,8.00
2022-11-04T01:15:16.691Z,7.90
2022-11-04T01:15:27.440Z,7.90
2022-11-04T01:15:40.661Z,7.70
2022-11-04T01:15:51.400Z,7.70
2022-11-04T01:16:02.142Z,7.50
2022-11-04T01:16:13.108Z,7.70
2022-11-04T01:16:24.048Z,7.50
2022-11-04T01:16:34.794Z,7.40
2022-11-04T01:16:45.537Z,7.70
2022-11-04T01:16:56.326Z,8.00
2022-11-04T01:17:08.782Z,7.90
2022-11-04T01:17:20.542Z,8.30
2022-11-04T01:17:31.310Z,8.50
2022-11-04T01:17:42.053Z,8.80
2022-11-04T01:17:52.814Z,9.00
2022-11-04T01:18:03.586Z,8.70
2022-11-04T01:18:15.292Z,8.40
2022-11-04T01:18:26.063Z,8.20
2022-11-04T01:18:36.810Z,8.20
2022-11-04T01:18:47.524Z,8.50
2022-11-04T01:18:58.255Z,8.60
2022-11-04T01:19:09.974Z,8.40
2022-11-04T01:19:21.724Z,8.30
2022-11-04T01:19:34.193Z,8.60
2022-11-04T01:19:45.936Z,8.90
2022-11-04T01:19:57.664Z,8.60
2022-11-04T01:20:08.404Z,8.30
2022-11-04T01:20:19.152Z,8.60
2022-11-04T01:20:29.894Z,8.60
2022-11-04T01:20:40.646Z,8.40
2022-11-04T01:20:53.073Z,8.60
2022-11-04T01:21:03.801Z,8.90
2022-11-04T01:21:14.562Z,8.70
2022-11-04T01:21:26.317Z,9.20
2022-11-04T01:21:39.523Z,9.80
2022-11-04T01:21:54.744Z,9.40
2022-11-04T01:22:06.495Z,8.90
2022-11-04T01:22:18.237Z,8.90
2022-11-04T01:22:29.023Z,8.50
2022-11-04T01:22:39.813Z,8.60
2022-11-04T01:22:50.575Z,8.50
2022-11-04T01:23:01.354Z,8.80
2022-11-04T01:23:12.155Z,8.70
2022-11-04T01:23:22.893Z,8.90
2022-11-04T01:23:33.701Z,8.60
2022-11-04T01:23:44.475Z,8.60
2022-11-04T01:23:56.933Z,8.70
2022-11-04T01:24:09.405Z,9.10
2022-11-04T01:24:21.124Z,8.90
2022-11-04T01:24:31.914Z,8.80
2022-11-04T01:24:42.724Z,8.70
2022-11-04T01:24:53.516Z,8.80
2022-11-04T01:25:04.246Z,8.90
2022-11-04T01:25:14.963Z,8.50
2022-11-04T01:25:27.411Z,8.80
2022-11-04T01:25:39.134Z,8.60
2022-11-04T01:25:51.568Z,8.80
2022-11-04T01:26:02.314Z,8.40
2022-11-04T01:26:13.058Z,8.10
2022-11-04T01:26:24.774Z,8.40
2022-11-04T01:26:38.001Z,8.80
2022-11-04T01:26:49.725Z,8.50
2022-11-04T01:27:01.446Z,8.40
2022-11-04T01:27:13.656Z,8.80
2022-11-04T01:27:24.423Z,9.00
2022-11-04T01:27:36.134Z,9.30
2022-11-04T01:27:46.925Z,9.50
2022-11-04T01:27:58.709Z,9.20
2022-11-04T01:28:09.928Z,9.20
2022-11-04T01:28:21.845Z,9.20
2022-11-04T01:28:32.634Z,9.30
2022-11-04T01:28:44.825Z,9.50
2022-11-04T01:28:55.585Z,9.30
2022-11-04T01:29:06.334Z,9.30
2022-11-04T01:29:18.038Z,9.30
2022-11-04T01:29:28.815Z,9.50
2022-11-04T01:29:39.606Z,9.70
2022-11-04T01:29:50.345Z,10.00
2022-11-04T01:30:01.095Z,10.00
2022-11-04T01:30:11.858Z,10.30
2022-11-04T01:30:23.554Z,10.40
2022-11-04T01:30:34.430Z,10.10
2022-11-04T01:30:45.215Z,10.30
2022-11-04T01:30:55.994Z,10.10
2022-11-04T01:31:06.726Z,10.00
2022-11-04T01:31:17.476Z,10.30
2022-11-04T01:31:31.129Z,10.40
2022-11-04T01:31:42.905Z,10.20
2022-11-04T01:31:54.625Z,10.40
2022-11-04T01:32:06.355Z,10.60
2022-11-04T01:32:18.608Z,10.90
2022-11-04T01:32:31.117Z,10.80
2022-11-04T01:32:41.935Z,11.30
2022-11-04T01:32:52.730Z,11.40
2022-11-04T01:33:03.485Z,11.40
2022-11-04T01:33:14.284Z,11.00
2022-11-04T01:33:25.065Z,11.60
2022-11-04T01:33:35.836Z,11.90
2022-11-04T01:33:48.050Z,11.50
2022-11-04T01:33:58.788Z,11.60
2022-11-04T01:34:09.517Z,11.80
2022-11-04T01:34:20.269Z,11.60
2022-11-04T01:34:31.006Z,11.60
2022-11-04T01:34:43.739Z,11.60
2022-11-04T01:34:55.430Z,11.30
2022-11-04T01:35:07.201Z,10.90
2022-11-04T01:35:18.064Z,11.00
2022-11-04T01:35:28.828Z,11.00
2022-11-04T01:35:39.617Z,11.10
2022-11-04T01:35:50.376Z,11.40
2022-11-04T01:36:01.146Z,11.10
2022-11-04T01:36:13.587Z,10.90
2022-11-04T01:36:25.325Z,11.40
2022-11-04T01:36:36.090Z,11.60
2022-11-04T01:36:46.855Z,11.90
2022-11-04T01:36:58.599Z,12.00
2022-11-04T01:37:09.388Z,11.60
2022-11-04T01:37:21.159Z,11.60
2022-11-04T01:37:32.892Z,11.60
2022-11-04T01:37:43.644Z,12.00
2022-11-04T01:37:54.399Z,11.70
2022-11-04T01:38:05.280Z,11.70
2022-11-04T01:38:16.176Z,11.30
2022-11-04T01:38:28.625Z,11.20
2022-11-04T01:38:39.420Z,11.00
2022-11-04T01:38:50.188Z,10.80
2022-11-04T01:39:02.610Z,11.20
2022-11-04T01:39:13.396Z,11.20
2022-11-04T01:39:24.359Z,11.30
2022-11-04T01:39:35.187Z,11.80
2022-11-04T01:39:45.988Z,11.90
2022-11-04T01:39:57.708Z,11.80
2022-11-04T01:40:08.450Z,11.10
2022-11-04T01:40:20.918Z,10.90
2022-11-04T01:40:31.669Z,11.30
2022-11-04T01:40:42.487Z,11.10
2022-11-04T01:40:53.237Z,11.20
2022-11-04T01:41:05.708Z,10.60
2022-11-04T01:41:17.930Z,11.00
2022-11-04T01:41:28.687Z,10.90
2022-11-04T01:41:39.439Z,11.40
2022-11-04T01:41:51.952Z,11.40
2022-11-04T01:42:15.891Z,11.00
2022-11-04T01:42:26.631Z,11.00
2022-11-04T01:42:39.339Z,11.10
2022-11-04T01:42:51.761Z,10.90
2022-11-04T01:43:04.282Z,10.70
2022-11-04T01:43:16.049Z,10.10
2022-11-04T01:43:26.853Z,9.60
2022-11-04T01:43:37.640Z,9.50
2022-11-04T01:43:48.454Z,9.70
2022-11-04T01:43:59.208Z,9.80
2022-11-04T01:44:09.969Z,9.70
2022-11-04T01:44:20.699Z,9.60
2022-11-04T01:44:31.429Z,9.80
2022-11-04T01:44:42.228Z,9.80
2022-11-04T01:44:52.970Z,10.00
2022-11-04T01:45:04.958Z,9.60
2022-11-04T01:45:15.739Z,9.40
2022-11-04T01:45:26.489Z,9.10
2022-11-04T01:45:37.230Z,8.30
2022-11-04T01:45:47.969Z,8.10
2022-11-04T01:45:58.701Z,7.90
2022-11-04T01:46:10.399Z,7.80
2022-11-04T01:46:22.102Z,7.60
2022-11-04T01:46:33.799Z,7.50
2022-11-04T01:46:45.550Z,7.60
2022-11-04T01:46:56.308Z,7.40
2022-11-04T01:47:07.091Z,7.50
2022-11-04T01:47:18.841Z,7.40
2022-11-04T01:47:31.295Z,7.30
2022-11-04T01:47:43.990Z,7.20
2022-11-04T01:47:55.713Z,7.10
2022-11-04T01:48:07.450Z,7.40
2022-11-04T01:48:18.179Z,7.10
2022-11-04T01:48:28.910Z,7.00
2022-11-04T01:48:41.162Z,6.70
2022-11-04T01:48:52.900Z,6.90
2022-11-04T01:49:04.850Z,7.20
2022-11-04T01:49:15.630Z,6.90
2022-11-04T01:49:26.372Z,7.10
2022-11-04T01:49:39.236Z,7.50
2022-11-04T01:49:53.790Z,7.90
2022-11-04T01:50:05.571Z,8.00
2022-11-04T01:50:16.349Z,7.60
2022-11-04T01:50:27.100Z,7.50
2022-11-04T01:50:37.879Z,7.70
2022-11-04T01:50:48.624Z,7.80
2022-11-04T01:51:00.374Z,7.70
2022-11-04T01:51:11.131Z,7.40
2022-11-04T01:51:22.903Z,7.30
2022-11-04T01:51:33.672Z,6.90
2022-11-04T01:51:44.441Z,6.90
2022-11-04T01:51:56.673Z,7.00
2022-11-04T01:52:08.412Z,6.50
2022-11-04T01:52:19.180Z,5.80
2022-11-04T01:52:32.892Z,5.60
2022-11-04T01:52:43.632Z,5.10
2022-11-04T01:52:55.393Z,5.40
2022-11-04T01:53:06.492Z,5.30
2022-11-04T01:53:19.293Z,5.40
2022-11-04T01:53:30.124Z,5.30
2022-11-04T01:53:40.951Z,5.20
2022-11-04T01:53:51.763Z,4.90
2022-11-04T01:54:02.500Z,4.60
2022-11-04T01:54:13.281Z,4.40
2022-11-04T01:54:25.001Z,4.60
2022-11-04T01:54:35.749Z,4.80
2022-11-04T01:54:46.489Z,4.60
2022-11-04T01:54:57.221Z,4.40
2022-11-04T01:55:07.972Z,4.60
2022-11-04T01:55:18.712Z,4.90
2022-11-04T01:55:29.491Z,5.10
2022-11-04T01:55:40.255Z,5.10
2022-11-04T01:55:51.001Z,4.70
2022-11-04T01:56:01.790Z,4.70
2022-11-04T01:56:12.534Z,4.50
2022-11-04T01:56:24.763Z,4.70
2022-11-04T01:56:36.495Z,4.60
2022-11-04T01:56:48.701Z,4.60
2022-11-04T01:56:59.443Z,4.70
2022-11-04T01:57:14.884Z,4.80
2022-11-04T01:57:25.853Z,4.60
2022-11-04T01:57:36.642Z,4.70
2022-11-04T01:57:47.402Z,4.50
2022-11-04T01:57:58.194Z,4.30
2022-11-04T01:58:08.963Z,4.00
2022-11-04T01:58:20.685Z,4.40
2022-11-04T01:58:33.243Z,4.00
2022-11-04T01:58:44.973Z,3.70
2022-11-04T01:58:55.713Z,3.40
2022-11-04T01:59:07.444Z,3.70
2022-11-04T01:59:19.885Z,3.80
2022-11-04T01:59:30.676Z,3.70
2022-11-04T01:59:41.502Z,3.50
2022-11-04T01:59:53.224Z,3.70
2022-11-04T02:00:03.983Z,3.80
2022-11-04T02:00:14.750Z,3.90
2022-11-04T02:00:25.513Z,3.90
2022-11-04T02:00:36.273Z,3.70
2022-11-04T02:00:47.026Z,3.50
2022-11-04T02:00:58.798Z,3.40
2022-11-04T02:01:09.606Z,3.50
2022-11-04T02:01:20.503Z,3.40
2022-11-04T02:01:32.420Z,3.20
2022-11-04T02:01:43.380Z,2.80
2022-11-04T02:01:54.393Z,3.00
2022-11-04T02:02:05.270Z,3.30
2022-11-04T02:02:16.250Z,3.40
2022-11-04T02:02:27.253Z,3.40
2022-11-04T02:02:39.079Z,3.40
2022-11-04T02:02:51.570Z,3.40
2022-11-04T02:03:04.016Z,3.40
2022-11-04T02:03:16.948Z,3.40
2022-11-04T02:03:28.656Z,3.70
2022-11-04T02:03:39.443Z,3.80
2022-11-04T02:03:51.885Z,3.80
2022-11-04T02:04:02.626Z,3.70
2022-11-04T02:04:13.393Z,3.70
2022-11-04T02:04:25.164Z,3.70
2022-11-04T02:04:36.906Z,3.60
2022-11-04T02:04:48.684Z,3.40
2022-11-04T02:04:59.504Z,3.30
2022-11-04T02:05:11.954Z,3.20
2022-11-04T02:05:22.693Z,3.30
2022-11-04T02:05:33.444Z,3.20
2022-11-04T02:05:45.171Z,3.30
2022-11-04T02:05:57.384Z,3.00
2022-11-04T02:06:10.529Z,3.10
2022-11-04T02:06:21.304Z,3.10
2022-11-04T02:06:32.046Z,3.00
2022-11-04T02:06:44.285Z,2.80
2022-11-04T02:06:57.497Z,2.90
2022-11-04T02:07:09.945Z,3.00
2022-11-04T02:07:20.714Z,3.10
2022-11-04T02:07:31.524Z,3.10
2022-11-04T02:07:42.266Z,3.10
2022-11-04T02:07:54.705Z,3.00
2022-11-04T02:08:05.465Z,3.10
2022-11-04T02:08:16.266Z,3.20
2022-11-04T02:08:28.030Z,3.40
2022-11-04T02:08:39.747Z,3.50
2022-11-04T02:08:52.214Z,3.30
2022-11-04T02:09:03.999Z,3.30
2022-11-04T02:09:14.756Z,3.00
2022-11-04T02:09:27.965Z,3.00
2022-11-04T02:09:38.757Z,2.80
2022-11-04T02:09:49.603Z,2.70
2022-11-04T02:10:01.325Z,2.80
2022-11-04T02:10:12.056Z,2.90
2022-11-04T02:10:24.305Z,2.80
2022-11-04T02:10:35.079Z,2.70
2022-11-04T02:10:46.789Z,2.50
2022-11-04T02:10:57.548Z,2.50
2022-11-04T02:11:08.366Z,2.60
2022-11-04T02:11:19.178Z,2.70
2022-11-04T02:11:29.926Z,2.70
2022-11-04T02:11:42.187Z,2.60
2022-11-04T02:11:53.903Z,2.50
2022-11-04T02:12:06.428Z,2.50
2022-11-04T02:12:18.218Z,2.60
2022-11-04T02:12:29.017Z,2.60
2022-11-04T02:12:41.465Z,2.60
2022-11-04T02:12:53.906Z,2.60
2022-11-04T02:13:06.605Z,2.80
2022-11-04T02:13:19.314Z,2.70
2022-11-04T02:13:30.057Z,2.70
2022-11-04T02:13:40.855Z,2.60
2022-11-04T02:13:52.592Z,2.60
2022-11-04T02:14:04.893Z,2.70
2022-11-04T02:14:15.622Z,2.60
2022-11-04T02:14:27.368Z,2.50
2022-11-04T02:14:38.196Z,2.60
2022-11-04T02:14:50.674Z,2.80
2022-11-04T02:15:01.477Z,2.80
2022-11-04T02:15:13.188Z,2.90
2022-11-04T02:15:24.939Z,3.30
2022-11-04T02:15:36.737Z,3.10
2022-11-04T02:15:47.499Z,2.70
2022-11-04T02:15:59.187Z,2.60
2022-11-04T02:16:09.955Z,2.70
2022-11-04T02:16:22.447Z,2.80
2022-11-04T02:16:33.187Z,2.80
2022-11-04T02:16:44.924Z,2.60
2022-11-04T02:16:55.657Z,2.50
2022-11-04T02:17:08.856Z,2.40
2022-11-04T02:17:19.706Z,2.50
2022-11-04T02:17:30.456Z,2.50
2022-11-04T02:17:41.246Z,2.40
2022-11-04T02:17:51.986Z,2.30
2022-11-04T02:18:02.736Z,2.20
2022-11-04T02:18:15.149Z,2.30
2022-11-04T02:18:25.888Z,2.50
2022-11-04T02:18:37.608Z,2.50
2022-11-04T02:18:48.527Z,2.70
2022-11-04T02:18:59.250Z,2.80
2022-11-04T02:19:11.488Z,5.70
2022-11-04T02:19:22.226Z,5.60
2022-11-04T02:19:33.027Z,2.70
2022-11-04T02:19:45.033Z,2.80
2022-11-04T02:19:55.827Z,2.80
2022-11-04T02:20:06.561Z,3.10
2022-11-04T02:20:17.288Z,3.20
2022-11-04T02:20:28.049Z,3.20
2022-11-04T02:20:40.497Z,3.30
2022-11-04T02:20:51.296Z,3.40
2022-11-04T02:21:05.058Z,3.20
2022-11-04T02:21:15.870Z,3.20
2022-11-04T02:21:26.699Z,3.00
2022-11-04T02:21:39.668Z,2.80
2022-11-04T02:21:52.147Z,2.60
2022-11-04T02:22:02.903Z,2.70
2022-11-04T02:22:13.628Z,2.70
2022-11-04T02:22:24.361Z,2.80
2022-11-04T02:22:35.118Z,2.70
2022-11-04T02:22:47.588Z,2.70
2022-11-04T02:22:58.347Z,2.60
2022-11-04T02:23:10.420Z,2.50
2022-11-04T02:23:21.438Z,2.60
2022-11-04T02:23:32.219Z,2.60
2022-11-04T02:23:43.002Z,2.60
2022-11-04T02:23:53.800Z,2.70
2022-11-04T02:24:06.260Z,2.80
2022-11-04T02:24:17.960Z,2.90
2022-11-04T02:24:28.719Z,2.90
2022-11-04T02:24:41.196Z,2.90
2022-11-04T02:24:51.960Z,2.80
2022-11-04T02:25:04.643Z,2.60
2022-11-04T02:25:15.400Z,2.70
2022-11-04T02:25:26.309Z,2.80
2022-11-04T02:25:37.124Z,2.90
2022-11-04T02:25:48.855Z,2.90
2022-11-04T02:25:59.660Z,3.00
2022-11-04T02:26:11.379Z,2.90
2022-11-04T02:26:22.153Z,2.70
2022-11-04T02:26:32.899Z,2.60
2022-11-04T02:26:44.589Z,2.80
2022-11-04T02:26:55.359Z,2.80
2022-11-04T02:27:07.059Z,2.80
2022-11-04T02:27:17.841Z,3.00
2022-11-04T02:27:28.631Z,3.10
2022-11-04T02:27:41.758Z,3.00
2022-11-04T02:27:52.520Z,2.50
2022-11-04T02:28:03.330Z,2.60
2022-11-04T02:28:15.180Z,2.70
2022-11-04T02:28:25.933Z,2.80
2022-11-04T02:28:36.711Z,2.90
2022-11-04T02:28:47.460Z,2.80
2022-11-04T02:29:00.087Z,2.80
2022-11-04T02:29:11.311Z,2.70
2022-11-04T02:29:23.550Z,2.60
2022-11-04T02:29:37.763Z,2.70
2022-11-04T02:29:50.210Z,2.70
2022-11-04T02:30:01.961Z,2.70
2022-11-04T02:30:13.672Z,2.90
2022-11-04T02:30:25.441Z,3.10
2022-11-04T02:30:37.871Z,3.10
2022-11-04T02:30:48.630Z,2.90
2022-11-04T02:30:59.373Z,2.70
2022-11-04T02:31:10.127Z,2.60
2022-11-04T02:31:20.900Z,2.70
2022-11-04T02:31:32.642Z,2.90
2022-11-04T02:31:43.411Z,3.00
2022-11-04T02:31:55.853Z,3.30